sensor_id;sensor_type;location;lat;lon;timestamp;temperature;humidity
3075;DHT22;1548;51.716;8.748;2022-08-21T00:00:49;17.70;78.60
3075;DHT22;1548;51.716;8.748;2022-08-21T00:03:15;17.70;78.60
3075;DHT22;1548;51.716;8.748;2022-08-21T00:05:45;17.70;78.40
3075;DHT22;1548;51.716;8.748;2022-08-21T00:08:11;17.60;78.70
3075;DHT22;1548;51.716;8.748;2022-08-21T00:10:38;17.60;78.70
3075;DHT22;1548;51.716;8.748;2022-08-21T00:13:04;17.50;78.60
3075;DHT22;1548;51.716;8.748;2022-08-21T00:15:33;17.50;78.60
3075;DHT22;1548;51.716;8.748;2022-08-21T00:17:58;17.60;78.60
3075;DHT22;1548;51.716;8.748;2022-08-21T00:20:25;17.70;78.50
3075;DHT22;1548;51.716;8.748;2022-08-21T00:22:50;17.60;78.50
3075;DHT22;1548;51.716;8.748;2022-08-21T00:25:18;17.60;78.60
3075;DHT22;1548;51.716;8.748;2022-08-21T00:27:44;17.50;78.70
3075;DHT22;1548;51.716;8.748;2022-08-21T00:30:13;17.40;78.70
3075;DHT22;1548;51.716;8.748;2022-08-21T00:32:39;17.40;78.70
3075;DHT22;1548;51.716;8.748;2022-08-21T00:35:12;17.30;78.80
3075;DHT22;1548;51.716;8.748;2022-08-21T00:37:39;17.20;78.80
3075;DHT22;1548;51.716;8.748;2022-08-21T00:40:07;17.10;78.70
3075;DHT22;1548;51.716;8.748;2022-08-21T00:42:34;17.20;78.80
3075;DHT22;1548;51.716;8.748;2022-08-21T00:45:00;17.10;78.90
3075;DHT22;1548;51.716;8.748;2022-08-21T00:47:27;17.10;78.80
3075;DHT22;1548;51.716;8.748;2022-08-21T00:49:53;17.00;78.90
3075;DHT22;1548;51.716;8.748;2022-08-21T00:52:25;16.90;78.80
3075;DHT22;1548;51.716;8.748;2022-08-21T00:54:51;16.90;78.80
3075;DHT22;1548;51.716;8.748;2022-08-21T00:57:30;16.90;79.00
3075;DHT22;1548;51.716;8.748;2022-08-21T00:59:58;16.90;79.00
3075;DHT22;1548;51.716;8.748;2022-08-21T01:02:25;16.90;78.90
3075;DHT22;1548;51.716;8.748;2022-08-21T01:04:51;16.80;79.20
3075;DHT22;1548;51.716;8.748;2022-08-21T01:07:17;16.90;79.00
3075;DHT22;1548;51.716;8.748;2022-08-21T01:09:44;16.80;79.10
3075;DHT22;1548;51.716;8.748;2022-08-21T01:12:11;16.90;79.00
3075;DHT22;1548;51.716;8.748;2022-08-21T01:14:38;16.80;79.00
3075;DHT22;1548;51.716;8.748;2022-08-21T01:17:04;16.80;79.10
3075;DHT22;1548;51.716;8.748;2022-08-21T01:19:30;16.80;79.20
3075;DHT22;1548;51.716;8.748;2022-08-21T01:21:56;16.90;78.80
3075;DHT22;1548;51.716;8.748;2022-08-21T01:24:22;16.90;78.90
3075;DHT22;1548;51.716;8.748;2022-08-21T01:26:49;16.90;78.90
3075;DHT22;1548;51.716;8.748;2022-08-21T01:29:39;16.80;79.10
3075;DHT22;1548;51.716;8.748;2022-08-21T01:32:17;17.00;79.10
3075;DHT22;1548;51.716;8.748;2022-08-21T01:34:45;16.90;78.90
3075;DHT22;1548;51.716;8.748;2022-08-21T01:37:12;17.00;79.10
3075;DHT22;1548;51.716;8.748;2022-08-21T01:39:38;17.00;78.90
3075;DHT22;1548;51.716;8.748;2022-08-21T01:42:05;17.00;78.90
3075;DHT22;1548;51.716;8.748;2022-08-21T01:44:31;17.00;78.90
3075;DHT22;1548;51.716;8.748;2022-08-21T01:46:59;17.10;79.00
3075;DHT22;1548;51.716;8.748;2022-08-21T01:49:25;17.10;79.00
3075;DHT22;1548;51.716;8.748;2022-08-21T01:51:51;17.00;78.80
3075;DHT22;1548;51.716;8.748;2022-08-21T01:54:17;16.90;78.80
3075;DHT22;1548;51.716;8.748;2022-08-21T01:56:46;17.00;78.90
3075;DHT22;1548;51.716;8.748;2022-08-21T01:59:12;16.90;78.90
3075;DHT22;1548;51.716;8.748;2022-08-21T02:01:38;16.90;78.80
3075;DHT22;1548;51.716;8.748;2022-08-21T02:04:07;17.00;78.90
3075;DHT22;1548;51.716;8.748;2022-08-21T02:06:33;16.90;78.80
3075;DHT22;1548;51.716;8.748;2022-08-21T02:09:00;16.70;78.90
3075;DHT22;1548;51.716;8.748;2022-08-21T02:11:26;16.70;78.90
3075;DHT22;1548;51.716;8.748;2022-08-21T02:13:52;16.70;79.00
3075;DHT22;1548;51.716;8.748;2022-08-21T02:16:17;16.80;78.90
3075;DHT22;1548;51.716;8.748;2022-08-21T02:18:43;16.70;79.00
3075;DHT22;1548;51.716;8.748;2022-08-21T02:21:09;16.60;78.90
3075;DHT22;1548;51.716;8.748;2022-08-21T02:23:35;16.60;78.90
3075;DHT22;1548;51.716;8.748;2022-08-21T02:26:03;16.70;78.90
3075;DHT22;1548;51.716;8.748;2022-08-21T02:28:29;16.70;78.80
3075;DHT22;1548;51.716;8.748;2022-08-21T02:30:55;16.80;78.90
3075;DHT22;1548;51.716;8.748;2022-08-21T02:33:21;16.70;78.70
3075;DHT22;1548;51.716;8.748;2022-08-21T02:35:48;16.60;78.70
3075;DHT22;1548;51.716;8.748;2022-08-21T02:38:18;16.60;78.70
3075;DHT22;1548;51.716;8.748;2022-08-21T02:40:46;16.50;78.70
3075;DHT22;1548;51.716;8.748;2022-08-21T02:43:12;16.60;78.70
3075;DHT22;1548;51.716;8.748;2022-08-21T02:45:39;16.60;78.70
3075;DHT22;1548;51.716;8.748;2022-08-21T02:48:11;16.60;78.70
3075;DHT22;1548;51.716;8.748;2022-08-21T02:50:40;16.50;78.60
3075;DHT22;1548;51.716;8.748;2022-08-21T02:53:07;16.50;78.80
3075;DHT22;1548;51.716;8.748;2022-08-21T02:55:35;16.60;78.80
3075;DHT22;1548;51.716;8.748;2022-08-21T02:58:04;16.60;78.70
3075;DHT22;1548;51.716;8.748;2022-08-21T03:00:31;16.50;78.70
3075;DHT22;1548;51.716;8.748;2022-08-21T03:02:57;16.50;78.80
3075;DHT22;1548;51.716;8.748;2022-08-21T03:05:24;16.60;78.80
3075;DHT22;1548;51.716;8.748;2022-08-21T03:07:50;16.60;78.40
3075;DHT22;1548;51.716;8.748;2022-08-21T03:10:18;16.60;78.40
3075;DHT22;1548;51.716;8.748;2022-08-21T03:12:45;16.60;78.60
3075;DHT22;1548;51.716;8.748;2022-08-21T03:15:13;16.60;78.60
3075;DHT22;1548;51.716;8.748;2022-08-21T03:17:39;16.50;78.70
3075;DHT22;1548;51.716;8.748;2022-08-21T03:20:06;16.60;78.60
3075;DHT22;1548;51.716;8.748;2022-08-21T03:22:32;16.60;78.70
3075;DHT22;1548;51.716;8.748;2022-08-21T03:24:58;16.50;78.60
3075;DHT22;1548;51.716;8.748;2022-08-21T03:27:25;16.50;78.60
3075;DHT22;1548;51.716;8.748;2022-08-21T03:29:52;16.40;78.50
3075;DHT22;1548;51.716;8.748;2022-08-21T03:32:17;16.30;78.40
3075;DHT22;1548;51.716;8.748;2022-08-21T03:34:44;16.20;78.70
3075;DHT22;1548;51.716;8.748;2022-08-21T03:37:10;16.10;78.70
3075;DHT22;1548;51.716;8.748;2022-08-21T03:39:36;16.30;79.00
3075;DHT22;1548;51.716;8.748;2022-08-21T03:42:02;16.30;78.80
3075;DHT22;1548;51.716;8.748;2022-08-21T03:44:27;16.20;78.70
3075;DHT22;1548;51.716;8.748;2022-08-21T03:46:57;16.20;78.70
3075;DHT22;1548;51.716;8.748;2022-08-21T03:49:23;16.20;79.00
3075;DHT22;1548;51.716;8.748;2022-08-21T03:51:50;16.30;78.70
3075;DHT22;1548;51.716;8.748;2022-08-21T03:54:15;16.50;78.70
3075;DHT22;1548;51.716;8.748;2022-08-21T03:56:41;16.60;78.30
3075;DHT22;1548;51.716;8.748;2022-08-21T03:59:07;16.60;78.40
3075;DHT22;1548;51.716;8.748;2022-08-21T04:01:33;16.70;78.50
3075;DHT22;1548;51.716;8.748;2022-08-21T04:03:59;16.70;78.20
3075;DHT22;1548;51.716;8.748;2022-08-21T04:06:25;16.70;78.40
3075;DHT22;1548;51.716;8.748;2022-08-21T04:08:52;16.70;78.30
3075;DHT22;1548;51.716;8.748;2022-08-21T04:11:18;16.70;78.40
3075;DHT22;1548;51.716;8.748;2022-08-21T04:13:43;16.70;78.30
3075;DHT22;1548;51.716;8.748;2022-08-21T04:16:09;16.90;78.30
3075;DHT22;1548;51.716;8.748;2022-08-21T04:18:35;17.00;77.90
3075;DHT22;1548;51.716;8.748;2022-08-21T04:21:02;17.00;78.00
3075;DHT22;1548;51.716;8.748;2022-08-21T04:23:28;17.00;77.90
3075;DHT22;1548;51.716;8.748;2022-08-21T04:25:54;17.10;77.80
3075;DHT22;1548;51.716;8.748;2022-08-21T04:28:21;17.10;77.70
3075;DHT22;1548;51.716;8.748;2022-08-21T04:30:47;17.10;77.80
3075;DHT22;1548;51.716;8.748;2022-08-21T04:33:13;17.20;77.60
3075;DHT22;1548;51.716;8.748;2022-08-21T04:35:40;17.10;77.60
3075;DHT22;1548;51.716;8.748;2022-08-21T04:38:07;17.20;77.60
3075;DHT22;1548;51.716;8.748;2022-08-21T04:40:32;17.30;77.60
3075;DHT22;1548;51.716;8.748;2022-08-21T04:43:02;17.20;77.60
3075;DHT22;1548;51.716;8.748;2022-08-21T04:45:31;17.20;77.70
3075;DHT22;1548;51.716;8.748;2022-08-21T04:47:59;17.30;77.50
3075;DHT22;1548;51.716;8.748;2022-08-21T04:50:31;17.40;77.30
3075;DHT22;1548;51.716;8.748;2022-08-21T04:52:57;17.40;77.30
3075;DHT22;1548;51.716;8.748;2022-08-21T04:55:24;17.50;77.30
3075;DHT22;1548;51.716;8.748;2022-08-21T04:57:52;17.40;77.30
3075;DHT22;1548;51.716;8.748;2022-08-21T05:00:20;17.50;77.40
3075;DHT22;1548;51.716;8.748;2022-08-21T05:02:46;17.60;77.20
3075;DHT22;1548;51.716;8.748;2022-08-21T05:05:13;17.60;77.10
3075;DHT22;1548;51.716;8.748;2022-08-21T05:07:39;17.60;76.90
3075;DHT22;1548;51.716;8.748;2022-08-21T05:10:06;17.60;76.90
3075;DHT22;1548;51.716;8.748;2022-08-21T05:12:34;17.70;76.80
3075;DHT22;1548;51.716;8.748;2022-08-21T05:15:00;17.80;76.80
3075;DHT22;1548;51.716;8.748;2022-08-21T05:17:26;17.80;76.70
3075;DHT22;1548;51.716;8.748;2022-08-21T05:19:51;17.80;76.60
3075;DHT22;1548;51.716;8.748;2022-08-21T05:22:24;17.90;76.70
3075;DHT22;1548;51.716;8.748;2022-08-21T05:24:50;17.90;76.60
3075;DHT22;1548;51.716;8.748;2022-08-21T05:27:16;18.00;76.40
3075;DHT22;1548;51.716;8.748;2022-08-21T05:29:42;18.00;76.20
3075;DHT22;1548;51.716;8.748;2022-08-21T05:32:11;18.10;76.30
3075;DHT22;1548;51.716;8.748;2022-08-21T05:34:37;18.10;76.30
3075;DHT22;1548;51.716;8.748;2022-08-21T05:37:04;18.10;76.30
3075;DHT22;1548;51.716;8.748;2022-08-21T05:39:30;18.10;76.30
3075;DHT22;1548;51.716;8.748;2022-08-21T05:41:55;18.20;76.40
3075;DHT22;1548;51.716;8.748;2022-08-21T05:44:21;18.20;76.20
3075;DHT22;1548;51.716;8.748;2022-08-21T05:46:46;18.20;76.20
3075;DHT22;1548;51.716;8.748;2022-08-21T05:49:12;18.30;76.20
3075;DHT22;1548;51.716;8.748;2022-08-21T05:51:40;18.30;76.10
3075;DHT22;1548;51.716;8.748;2022-08-21T05:54:06;18.30;76.10
3075;DHT22;1548;51.716;8.748;2022-08-21T05:56:31;18.30;76.10
3075;DHT22;1548;51.716;8.748;2022-08-21T05:58:57;18.30;76.20
3075;DHT22;1548;51.716;8.748;2022-08-21T06:01:23;18.40;76.00
3075;DHT22;1548;51.716;8.748;2022-08-21T06:03:49;18.40;75.90
3075;DHT22;1548;51.716;8.748;2022-08-21T06:06:14;18.50;75.80
3075;DHT22;1548;51.716;8.748;2022-08-21T06:08:41;18.60;75.60
3075;DHT22;1548;51.716;8.748;2022-08-21T06:11:07;18.60;75.50
3075;DHT22;1548;51.716;8.748;2022-08-21T06:13:34;18.60;75.50
3075;DHT22;1548;51.716;8.748;2022-08-21T06:16:11;18.50;75.50
3075;DHT22;1548;51.716;8.748;2022-08-21T06:18:38;18.50;75.50
3075;DHT22;1548;51.716;8.748;2022-08-21T06:21:05;18.60;75.50
3075;DHT22;1548;51.716;8.748;2022-08-21T06:23:31;18.70;75.30
3075;DHT22;1548;51.716;8.748;2022-08-21T06:25:57;18.80;75.30
3075;DHT22;1548;51.716;8.748;2022-08-21T06:28:23;18.80;75.00
3075;DHT22;1548;51.716;8.748;2022-08-21T06:30:48;18.80;74.80
3075;DHT22;1548;51.716;8.748;2022-08-21T06:33:14;18.80;74.80
3075;DHT22;1548;51.716;8.748;2022-08-21T06:35:40;18.80;74.70
3075;DHT22;1548;51.716;8.748;2022-08-21T06:38:06;18.80;74.80
3075;DHT22;1548;51.716;8.748;2022-08-21T06:40:31;18.90;74.70
3075;DHT22;1548;51.716;8.748;2022-08-21T06:42:58;18.80;74.50
3075;DHT22;1548;51.716;8.748;2022-08-21T06:45:29;18.70;74.60
3075;DHT22;1548;51.716;8.748;2022-08-21T06:47:55;18.60;75.00
3075;DHT22;1548;51.716;8.748;2022-08-21T06:50:21;18.80;74.90
3075;DHT22;1548;51.716;8.748;2022-08-21T06:52:46;18.90;74.80
3075;DHT22;1548;51.716;8.748;2022-08-21T06:55:12;19.00;74.70
3075;DHT22;1548;51.716;8.748;2022-08-21T06:57:38;19.10;74.40
3075;DHT22;1548;51.716;8.748;2022-08-21T07:00:05;19.20;74.40
3075;DHT22;1548;51.716;8.748;2022-08-21T07:02:32;19.10;74.10
3075;DHT22;1548;51.716;8.748;2022-08-21T07:04:59;19.10;74.20
3075;DHT22;1548;51.716;8.748;2022-08-21T07:07:24;19.30;74.20
3075;DHT22;1548;51.716;8.748;2022-08-21T07:09:50;19.40;73.90
3075;DHT22;1548;51.716;8.748;2022-08-21T07:12:16;19.40;73.70
3075;DHT22;1548;51.716;8.748;2022-08-21T07:14:41;19.50;73.60
3075;DHT22;1548;51.716;8.748;2022-08-21T07:17:08;19.40;73.40
3075;DHT22;1548;51.716;8.748;2022-08-21T07:19:33;19.50;73.30
3075;DHT22;1548;51.716;8.748;2022-08-21T07:22:01;19.50;73.30
3075;DHT22;1548;51.716;8.748;2022-08-21T07:24:27;19.60;73.20
3075;DHT22;1548;51.716;8.748;2022-08-21T07:26:53;19.40;72.90
3075;DHT22;1548;51.716;8.748;2022-08-21T07:29:19;19.50;73.10
3075;DHT22;1548;51.716;8.748;2022-08-21T07:31:44;19.50;73.10
3075;DHT22;1548;51.716;8.748;2022-08-21T07:34:10;19.70;73.10
3075;DHT22;1548;51.716;8.748;2022-08-21T07:36:36;19.80;72.70
3075;DHT22;1548;51.716;8.748;2022-08-21T07:39:02;19.90;72.60
3075;DHT22;1548;51.716;8.748;2022-08-21T07:41:28;19.70;72.40
3075;DHT22;1548;51.716;8.748;2022-08-21T07:43:58;19.70;72.30
3075;DHT22;1548;51.716;8.748;2022-08-21T07:46:24;19.80;72.50
3075;DHT22;1548;51.716;8.748;2022-08-21T07:48:51;19.80;71.80
3075;DHT22;1548;51.716;8.748;2022-08-21T07:51:18;19.90;71.70
3075;DHT22;1548;51.716;8.748;2022-08-21T07:53:51;20.10;71.80
3075;DHT22;1548;51.716;8.748;2022-08-21T07:56:18;20.30;71.40
3075;DHT22;1548;51.716;8.748;2022-08-21T07:58:43;20.50;71.10
3075;DHT22;1548;51.716;8.748;2022-08-21T08:01:09;20.40;69.90
3075;DHT22;1548;51.716;8.748;2022-08-21T08:03:35;20.30;70.20
3075;DHT22;1548;51.716;8.748;2022-08-21T08:06:00;20.40;70.10
3075;DHT22;1548;51.716;8.748;2022-08-21T08:08:26;20.40;70.00
3075;DHT22;1548;51.716;8.748;2022-08-21T08:10:53;20.50;69.90
3075;DHT22;1548;51.716;8.748;2022-08-21T08:13:19;20.50;69.90
3075;DHT22;1548;51.716;8.748;2022-08-21T08:15:44;20.70;69.90
3075;DHT22;1548;51.716;8.748;2022-08-21T08:18:10;20.70;69.30
3075;DHT22;1548;51.716;8.748;2022-08-21T08:20:36;20.70;68.80
3075;DHT22;1548;51.716;8.748;2022-08-21T08:23:02;20.80;68.60
3075;DHT22;1548;51.716;8.748;2022-08-21T08:25:28;20.80;69.40
3075;DHT22;1548;51.716;8.748;2022-08-21T08:27:54;20.90;69.60
3075;DHT22;1548;51.716;8.748;2022-08-21T08:30:20;20.90;69.60
3075;DHT22;1548;51.716;8.748;2022-08-21T08:32:47;20.80;69.70
3075;DHT22;1548;51.716;8.748;2022-08-21T08:35:13;21.00;69.70
3075;DHT22;1548;51.716;8.748;2022-08-21T08:37:40;21.00;69.30
3075;DHT22;1548;51.716;8.748;2022-08-21T08:40:14;21.00;69.00
3075;DHT22;1548;51.716;8.748;2022-08-21T08:42:43;21.10;67.80
3075;DHT22;1548;51.716;8.748;2022-08-21T08:45:12;21.20;67.40
3075;DHT22;1548;51.716;8.748;2022-08-21T08:47:43;21.20;68.20
3075;DHT22;1548;51.716;8.748;2022-08-21T08:50:18;21.30;68.50
3075;DHT22;1548;51.716;8.748;2022-08-21T08:55:46;21.60;68.20
3075;DHT22;1548;51.716;8.748;2022-08-21T08:58:19;21.40;65.50
3075;DHT22;1548;51.716;8.748;2022-08-21T09:00:47;21.30;65.90
3075;DHT22;1548;51.716;8.748;2022-08-21T09:03:15;21.30;66.90
3075;DHT22;1548;51.716;8.748;2022-08-21T09:05:50;21.40;66.90
3075;DHT22;1548;51.716;8.748;2022-08-21T09:08:42;21.30;66.30
3075;DHT22;1548;51.716;8.748;2022-08-21T09:16:43;21.50;67.50
3075;DHT22;1548;51.716;8.748;2022-08-21T09:22:23;21.50;65.70
3075;DHT22;1548;51.716;8.748;2022-08-21T09:27:38;21.50;66.10
3075;DHT22;1548;51.716;8.748;2022-08-21T09:30:06;21.70;66.10
3075;DHT22;1548;51.716;8.748;2022-08-21T09:32:34;21.80;65.50
3075;DHT22;1548;51.716;8.748;2022-08-21T09:35:11;21.80;65.60
3075;DHT22;1548;51.716;8.748;2022-08-21T09:42:56;22.30;65.80
3075;DHT22;1548;51.716;8.748;2022-08-21T09:45:22;22.60;64.90
3075;DHT22;1548;51.716;8.748;2022-08-21T09:47:48;22.60;64.10
3075;DHT22;1548;51.716;8.748;2022-08-21T09:50:21;22.70;63.90
3075;DHT22;1548;51.716;8.748;2022-08-21T09:52:51;22.40;64.30
3075;DHT22;1548;51.716;8.748;2022-08-21T09:58:16;22.40;65.30
3075;DHT22;1548;51.716;8.748;2022-08-21T10:00:43;22.30;65.20
3075;DHT22;1548;51.716;8.748;2022-08-21T10:03:16;22.10;65.20
3075;DHT22;1548;51.716;8.748;2022-08-21T10:06:10;22.20;65.40
3075;DHT22;1548;51.716;8.748;2022-08-21T10:08:45;22.30;65.10
3075;DHT22;1548;51.716;8.748;2022-08-21T10:11:16;22.50;65.30
3075;DHT22;1548;51.716;8.748;2022-08-21T10:29:57;23.00;63.10
3075;DHT22;1548;51.716;8.748;2022-08-21T10:35:39;22.50;63.70
3075;DHT22;1548;51.716;8.748;2022-08-21T10:44:17;22.60;63.40
3075;DHT22;1548;51.716;8.748;2022-08-21T10:55:04;23.40;61.80
3075;DHT22;1548;51.716;8.748;2022-08-21T10:57:46;23.60;61.00
3075;DHT22;1548;51.716;8.748;2022-08-21T11:00:22;23.80;59.70
3075;DHT22;1548;51.716;8.748;2022-08-21T11:05:54;24.00;59.30
3075;DHT22;1548;51.716;8.748;2022-08-21T11:08:37;23.90;58.90
3075;DHT22;1548;51.716;8.748;2022-08-21T11:11:10;23.70;60.00
3075;DHT22;1548;51.716;8.748;2022-08-21T11:13:43;23.60;60.40
3075;DHT22;1548;51.716;8.748;2022-08-21T11:19:02;23.90;60.20
3075;DHT22;1548;51.716;8.748;2022-08-21T11:21:49;24.00;58.80
3075;DHT22;1548;51.716;8.748;2022-08-21T11:29:32;24.50;58.00
3075;DHT22;1548;51.716;8.748;2022-08-21T11:45:55;24.10;58.60
3075;DHT22;1548;51.716;8.748;2022-08-21T11:48:29;24.10;58.70
3075;DHT22;1548;51.716;8.748;2022-08-21T11:51:00;24.10;58.90
3075;DHT22;1548;51.716;8.748;2022-08-21T11:53:32;23.90;58.70
3075;DHT22;1548;51.716;8.748;2022-08-21T11:56:06;23.90;58.80
3075;DHT22;1548;51.716;8.748;2022-08-21T11:58:42;23.90;58.80
3075;DHT22;1548;51.716;8.748;2022-08-21T12:01:13;23.80;59.10
3075;DHT22;1548;51.716;8.748;2022-08-21T12:03:50;24.10;59.20
3075;DHT22;1548;51.716;8.748;2022-08-21T12:06:31;24.20;58.90
3075;DHT22;1548;51.716;8.748;2022-08-21T12:09:00;24.40;58.80
3075;DHT22;1548;51.716;8.748;2022-08-21T12:11:27;24.50;58.40
3075;DHT22;1548;51.716;8.748;2022-08-21T12:14:15;24.50;58.20
3075;DHT22;1548;51.716;8.748;2022-08-21T12:16:44;24.30;58.20
3075;DHT22;1548;51.716;8.748;2022-08-21T12:19:12;24.40;58.60
3075;DHT22;1548;51.716;8.748;2022-08-21T12:29:47;24.50;57.80
3075;DHT22;1548;51.716;8.748;2022-08-21T12:34:42;25.00;57.50
3075;DHT22;1548;51.716;8.748;2022-08-21T12:37:39;24.90;56.60
3075;DHT22;1548;51.716;8.748;2022-08-21T12:40:28;25.20;57.20
3075;DHT22;1548;51.716;8.748;2022-08-21T12:42:57;24.90;56.00
3075;DHT22;1548;51.716;8.748;2022-08-21T12:45:42;24.90;56.60
3075;DHT22;1548;51.716;8.748;2022-08-21T12:50:53;24.80;56.70
3075;DHT22;1548;51.716;8.748;2022-08-21T12:53:44;25.00;56.50
3075;DHT22;1548;51.716;8.748;2022-08-21T12:56:14;24.90;56.60
3075;DHT22;1548;51.716;8.748;2022-08-21T12:58:45;25.20;56.50
3075;DHT22;1548;51.716;8.748;2022-08-21T13:01:24;25.20;56.80
3075;DHT22;1548;51.716;8.748;2022-08-21T13:03:53;25.50;56.70
3075;DHT22;1548;51.716;8.748;2022-08-21T13:06:22;25.60;55.80
3075;DHT22;1548;51.716;8.748;2022-08-21T13:09:04;25.50;55.90
3075;DHT22;1548;51.716;8.748;2022-08-21T13:11:32;25.30;56.30
3075;DHT22;1548;51.716;8.748;2022-08-21T13:13:58;25.10;56.70
3075;DHT22;1548;51.716;8.748;2022-08-21T13:16:27;25.10;56.50
3075;DHT22;1548;51.716;8.748;2022-08-21T13:19:00;24.90;56.10
3075;DHT22;1548;51.716;8.748;2022-08-21T13:21:32;24.70;56.40
3075;DHT22;1548;51.716;8.748;2022-08-21T13:24:19;24.90;55.00
3075;DHT22;1548;51.716;8.748;2022-08-21T13:26:45;24.80;55.80
3075;DHT22;1548;51.716;8.748;2022-08-21T13:29:13;24.80;55.20
3075;DHT22;1548;51.716;8.748;2022-08-21T13:31:46;24.70;55.20
3075;DHT22;1548;51.716;8.748;2022-08-21T13:34:12;24.90;55.70
3075;DHT22;1548;51.716;8.748;2022-08-21T13:36:41;25.10;55.10
3075;DHT22;1548;51.716;8.748;2022-08-21T13:39:11;25.00;54.60
3075;DHT22;1548;51.716;8.748;2022-08-21T13:41:39;25.00;55.00
3075;DHT22;1548;51.716;8.748;2022-08-21T13:44:35;25.00;52.20
3075;DHT22;1548;51.716;8.748;2022-08-21T13:47:04;25.20;53.70
3075;DHT22;1548;51.716;8.748;2022-08-21T13:49:38;25.20;53.10
3075;DHT22;1548;51.716;8.748;2022-08-21T13:52:14;25.30;53.10
3075;DHT22;1548;51.716;8.748;2022-08-21T13:54:42;25.20;52.90
3075;DHT22;1548;51.716;8.748;2022-08-21T13:57:27;25.20;53.30
3075;DHT22;1548;51.716;8.748;2022-08-21T14:00:24;25.30;53.20
3075;DHT22;1548;51.716;8.748;2022-08-21T14:02:52;25.20;53.10
3075;DHT22;1548;51.716;8.748;2022-08-21T14:05:26;25.00;53.80
3075;DHT22;1548;51.716;8.748;2022-08-21T14:08:13;25.10;53.70
3075;DHT22;1548;51.716;8.748;2022-08-21T14:10:50;25.20;54.00
3075;DHT22;1548;51.716;8.748;2022-08-21T14:13:40;25.20;53.80
3075;DHT22;1548;51.716;8.748;2022-08-21T14:21:32;24.90;54.10
3075;DHT22;1548;51.716;8.748;2022-08-21T14:24:44;25.20;53.90
3075;DHT22;1548;51.716;8.748;2022-08-21T14:27:03;25.50;53.10
3075;DHT22;1548;51.716;8.748;2022-08-21T14:29:37;25.60;53.00
3075;DHT22;1548;51.716;8.748;2022-08-21T14:32:35;25.60;52.30
3075;DHT22;1548;51.716;8.748;2022-08-21T14:35:00;25.70;52.20
3075;DHT22;1548;51.716;8.748;2022-08-21T14:37:26;25.60;52.30
3075;DHT22;1548;51.716;8.748;2022-08-21T14:39:52;25.80;52.70
3075;DHT22;1548;51.716;8.748;2022-08-21T14:42:18;25.60;52.00
3075;DHT22;1548;51.716;8.748;2022-08-21T14:44:44;25.80;51.80
3075;DHT22;1548;51.716;8.748;2022-08-21T14:47:09;25.60;52.30
3075;DHT22;1548;51.716;8.748;2022-08-21T14:49:35;25.90;51.90
3075;DHT22;1548;51.716;8.748;2022-08-21T14:52:01;26.10;51.60
3075;DHT22;1548;51.716;8.748;2022-08-21T14:54:28;26.10;50.90
3075;DHT22;1548;51.716;8.748;2022-08-21T14:56:54;26.00;50.70
3075;DHT22;1548;51.716;8.748;2022-08-21T14:59:20;26.10;50.10
3075;DHT22;1548;51.716;8.748;2022-08-21T15:01:47;26.00;50.50
3075;DHT22;1548;51.716;8.748;2022-08-21T15:04:13;26.00;51.00
3075;DHT22;1548;51.716;8.748;2022-08-21T15:06:38;25.90;51.40
3075;DHT22;1548;51.716;8.748;2022-08-21T15:09:04;26.00;51.70
3075;DHT22;1548;51.716;8.748;2022-08-21T15:11:32;26.00;52.10
3075;DHT22;1548;51.716;8.748;2022-08-21T15:14:01;25.80;52.10
3075;DHT22;1548;51.716;8.748;2022-08-21T15:16:29;25.90;52.60
3075;DHT22;1548;51.716;8.748;2022-08-21T15:18:56;26.00;51.90
3075;DHT22;1548;51.716;8.748;2022-08-21T15:21:22;26.30;51.20
3075;DHT22;1548;51.716;8.748;2022-08-21T15:23:47;26.00;51.70
3075;DHT22;1548;51.716;8.748;2022-08-21T15:26:13;25.90;52.10
3075;DHT22;1548;51.716;8.748;2022-08-21T15:28:39;25.70;52.60
3075;DHT22;1548;51.716;8.748;2022-08-21T15:31:05;25.70;52.40
3075;DHT22;1548;51.716;8.748;2022-08-21T15:33:31;25.70;52.60
3075;DHT22;1548;51.716;8.748;2022-08-21T15:35:57;25.80;52.70
3075;DHT22;1548;51.716;8.748;2022-08-21T15:38:23;25.90;52.30
3075;DHT22;1548;51.716;8.748;2022-08-21T15:40:49;26.00;52.30
3075;DHT22;1548;51.716;8.748;2022-08-21T15:43:30;26.00;52.10
3075;DHT22;1548;51.716;8.748;2022-08-21T15:46:00;26.00;52.00
3075;DHT22;1548;51.716;8.748;2022-08-21T15:48:27;26.10;52.30
3075;DHT22;1548;51.716;8.748;2022-08-21T15:50:52;26.30;51.80
3075;DHT22;1548;51.716;8.748;2022-08-21T15:53:20;26.80;51.70
3075;DHT22;1548;51.716;8.748;2022-08-21T15:55:46;27.40;50.80
3075;DHT22;1548;51.716;8.748;2022-08-21T15:58:14;27.80;49.50
3075;DHT22;1548;51.716;8.748;2022-08-21T16:00:40;27.80;49.80
3075;DHT22;1548;51.716;8.748;2022-08-21T16:03:10;27.70;49.00
3075;DHT22;1548;51.716;8.748;2022-08-21T16:05:37;27.80;49.00
3075;DHT22;1548;51.716;8.748;2022-08-21T16:08:02;27.90;48.90
3075;DHT22;1548;51.716;8.748;2022-08-21T16:10:29;27.90;48.90
3075;DHT22;1548;51.716;8.748;2022-08-21T16:12:58;27.80;48.90
3075;DHT22;1548;51.716;8.748;2022-08-21T16:15:26;27.90;48.70
3075;DHT22;1548;51.716;8.748;2022-08-21T16:17:52;28.10;48.30
3075;DHT22;1548;51.716;8.748;2022-08-21T16:20:24;28.20;48.40
3075;DHT22;1548;51.716;8.748;2022-08-21T16:22:52;27.90;48.10
3075;DHT22;1548;51.716;8.748;2022-08-21T16:25:19;27.90;48.50
3075;DHT22;1548;51.716;8.748;2022-08-21T16:27:48;26.90;50.00
3075;DHT22;1548;51.716;8.748;2022-08-21T16:30:15;26.70;50.30
3075;DHT22;1548;51.716;8.748;2022-08-21T16:32:42;26.40;50.80
3075;DHT22;1548;51.716;8.748;2022-08-21T16:35:11;26.40;51.10
3075;DHT22;1548;51.716;8.748;2022-08-21T16:37:38;26.10;51.80
3075;DHT22;1548;51.716;8.748;2022-08-21T16:40:04;25.70;52.20
3075;DHT22;1548;51.716;8.748;2022-08-21T16:42:30;25.70;52.50
3075;DHT22;1548;51.716;8.748;2022-08-21T16:44:55;25.40;52.90
3075;DHT22;1548;51.716;8.748;2022-08-21T16:47:22;25.40;53.30
3075;DHT22;1548;51.716;8.748;2022-08-21T16:49:47;25.30;53.40
3075;DHT22;1548;51.716;8.748;2022-08-21T16:52:15;25.10;53.80
3075;DHT22;1548;51.716;8.748;2022-08-21T16:54:41;24.90;54.30
3075;DHT22;1548;51.716;8.748;2022-08-21T16:57:08;25.00;54.40
3075;DHT22;1548;51.716;8.748;2022-08-21T16:59:34;24.90;54.60
3075;DHT22;1548;51.716;8.748;2022-08-21T17:02:00;25.00;54.70
3075;DHT22;1548;51.716;8.748;2022-08-21T17:04:26;24.90;54.70
3075;DHT22;1548;51.716;8.748;2022-08-21T17:06:53;24.70;55.20
3075;DHT22;1548;51.716;8.748;2022-08-21T17:09:18;24.60;55.50
3075;DHT22;1548;51.716;8.748;2022-08-21T17:11:45;24.60;55.50
3075;DHT22;1548;51.716;8.748;2022-08-21T17:14:17;24.50;55.90
3075;DHT22;1548;51.716;8.748;2022-08-21T17:16:46;24.50;56.20
3075;DHT22;1548;51.716;8.748;2022-08-21T17:19:15;24.50;55.80
3075;DHT22;1548;51.716;8.748;2022-08-21T17:21:43;24.40;56.20
3075;DHT22;1548;51.716;8.748;2022-08-21T17:24:09;24.30;56.30
3075;DHT22;1548;51.716;8.748;2022-08-21T17:26:37;24.30;56.50
3075;DHT22;1548;51.716;8.748;2022-08-21T17:29:04;24.30;56.70
3075;DHT22;1548;51.716;8.748;2022-08-21T17:31:34;24.30;56.80
3075;DHT22;1548;51.716;8.748;2022-08-21T17:34:00;24.20;57.10
3075;DHT22;1548;51.716;8.748;2022-08-21T17:36:28;24.20;57.30
3075;DHT22;1548;51.716;8.748;2022-08-21T17:38:54;24.10;57.50
3075;DHT22;1548;51.716;8.748;2022-08-21T17:41:20;24.10;57.50
3075;DHT22;1548;51.716;8.748;2022-08-21T17:43:46;24.20;57.50
3075;DHT22;1548;51.716;8.748;2022-08-21T17:46:18;24.30;57.40
3075;DHT22;1548;51.716;8.748;2022-08-21T17:48:44;24.30;57.30
3075;DHT22;1548;51.716;8.748;2022-08-21T17:51:12;24.20;57.50